Time;durP1;ratioP1;P1;durP2;ratioP2;P2;SDS_P1;SDS_P2;PMS_P1;PMS_P2;Temp;Humidity;BMP_temperature;BMP_pressure;BME280_temperature;BME280_humidity;BME280_pressure;Samples;Min_cycle;Max_cycle;Signal;HPM_P1;HPM_P2
2023/03/23 00:00:47;;;;;;;4.22;3.03;;;;;;;-144.57;100.00;62443.72;4751177;30;20579;-64
2023/03/23 00:03:13;;;;;;;5.28;3.00;;;;;;;-144.57;100.00;62443.72;4764251;30;20113;-64
2023/03/23 00:05:40;;;;;;;4.93;3.45;;;;;;;-144.57;100.00;62443.72;4752729;30;20105;-64
2023/03/23 00:08:08;;;;;;;3.92;2.83;;;;;;;-144.57;100.00;62443.72;4732081;30;20656;-63
2023/03/23 00:10:37;;;;;;;4.68;3.20;;;;;;;-144.57;100.00;62443.72;4732027;30;20052;-63
2023/03/23 00:13:03;;;;;;;3.60;3.00;;;;;;;-144.57;100.00;62443.72;4746375;30;20099;-63
2023/03/23 00:15:33;;;;;;;4.38;3.05;;;;;;;-144.57;100.00;62443.72;4750628;30;20545;-64
2023/03/23 00:18:02;;;;;;;3.95;2.88;;;;;;;-144.57;100.00;62443.72;4750479;30;20068;-63
2023/03/23 00:20:29;;;;;;;5.10;3.08;;;;;;;-144.57;100.00;62443.72;4749444;30;20087;-62
2023/03/23 00:22:59;;;;;;;4.85;3.25;;;;;;;-144.57;100.00;62443.72;4750317;30;20088;-62
2023/03/23 00:25:25;;;;;;;5.32;3.10;;;;;;;-144.57;100.00;62443.72;4748871;30;20129;-64
2023/03/23 00:27:51;;;;;;;4.43;3.13;;;;;;;-144.57;100.00;62443.72;4750270;30;20056;-63
2023/03/23 00:30:17;;;;;;;3.33;2.65;;;;;;;-144.57;100.00;62443.72;4750340;30;20067;-64
2023/03/23 00:32:43;;;;;;;3.72;2.90;;;;;;;-144.57;100.00;62443.72;4750144;30;20182;-64
2023/03/23 00:35:09;;;;;;;5.45;3.08;;;;;;;-144.57;100.00;62443.72;4764033;30;20155;-62
2023/03/23 00:37:35;;;;;;;4.60;2.88;;;;;;;-144.57;100.00;62443.72;4763682;30;20553;-64
2023/03/23 00:40:07;;;;;;;3.92;3.20;;;;;;;-144.57;100.00;62443.72;4748850;30;20064;-63
2023/03/23 00:42:37;;;;;;;4.07;2.85;;;;;;;-144.57;100.00;62443.72;4750501;30;20157;-64
2023/03/23 00:45:10;;;;;;;3.97;2.97;;;;;;;-144.57;100.00;62443.72;4749326;30;20055;-63
2023/03/23 00:47:40;;;;;;;3.55;2.83;;;;;;;-144.57;100.00;62443.72;4749954;30;20083;-64
2023/03/23 12:30:36;;;;;;;5.35;3.45;;;;;;;-144.57;100.00;62443.72;4775035;30;20154;-66
2023/03/23 12:33:24;;;;;;;4.90;3.63;;;;;;;-144.57;100.00;62443.72;4772446;30;20052;-65
2023/03/23 12:36:09;;;;;;;5.28;4.07;;;;;;;-144.57;100.00;62443.72;4790061;29;20053;-65
2023/03/23 12:39:03;;;;;;;5.65;4.45;;;;;;;-144.57;100.00;62443.72;4767605;29;20063;-66
2023/03/23 12:42:08;;;;;;;6.45;4.15;;;;;;;-144.57;100.00;62443.72;4775599;30;20078;-64
2023/03/23 12:49:11;;;;;;;6.32;4.30;;;;;;;-144.57;100.00;62443.72;5347406;24;20027;-63
2023/03/23 12:51:40;;;;;;;5.22;3.58;;;;;;;-144.57;100.00;62443.72;4783359;30;20059;-63
2023/03/23 12:54:09;;;;;;;5.97;4.00;;;;;;;-144.57;100.00;62443.72;4763799;30;20059;-63
2023/03/23 12:56:57;;;;;;;5.55;3.95;;;;;;;-144.57;100.00;62443.72;4785500;30;20055;-62
2023/03/23 12:59:35;;;;;;;5.45;4.00;;;;;;;-144.57;100.00;62443.72;4774489;29;20506;-62
2023/03/23 13:02:12;;;;;;;5.70;4.45;;;;;;;-144.57;100.00;62443.72;4784194;30;20043;-63
2023/03/23 13:04:44;;;;;;;5.50;3.83;;;;;;;-144.57;100.00;62443.72;4785602;30;20450;-64
2023/03/23 13:07:23;;;;;;;5.32;3.80;;;;;;;-144.57;100.00;62443.72;4743494;30;20399;-64
2023/03/23 13:10:04;;;;;;;4.93;3.58;;;;;;;-144.57;100.00;62443.72;4723998;30;20562;-65
2023/03/23 13:12:30;;;;;;;5.47;4.05;;;;;;;-144.57;100.00;62443.72;4784516;30;20055;-64
2023/03/23 13:15:25;;;;;;;7.30;3.72;;;;;;;-144.57;100.00;62443.72;4769345;30;20063;-64
2023/03/23 13:18:11;;;;;;;4.32;3.60;;;;;;;-144.57;100.00;62443.72;4763912;30;20082;-64
2023/03/23 13:21:03;;;;;;;5.88;4.40;;;;;;;-144.57;100.00;62443.72;4768297;30;20055;-65
2023/03/23 13:23:34;;;;;;;6.47;3.80;;;;;;;-144.57;100.00;62443.72;4737222;30;20491;-64
2023/03/23 13:26:01;;;;;;;5.82;3.80;;;;;;;-144.57;100.00;62443.72;4743215;30;20055;-63
2023/03/23 13:28:46;;;;;;;7.20;4.22;;;;;;;-144.57;100.00;62443.72;4769351;30;20074;-66
2023/03/23 13:31:16;;;;;;;6.78;3.85;;;;;;;-144.57;100.00;62443.72;4759620;30;20083;-63
2023/03/23 13:33:57;;;;;;;4.95;3.70;;;;;;;-144.57;100.00;62443.72;4776679;30;20060;-65
2023/03/23 13:36:56;;;;;;;5.32;3.70;;;;;;;-144.57;100.00;62443.72;4769712;30;20461;-65
2023/03/23 13:39:24;;;;;;;4.72;3.60;;;;;;;-144.57;100.00;62443.72;4770446;30;20069;-65
2023/03/23 13:42:03;;;;;;;5.68;3.60;;;;;;;-144.57;100.00;62443.72;4772368;30;20063;-61
2023/03/23 13:44:45;;;;;;;5.35;4.00;;;;;;;-144.57;100.00;62443.72;4788774;30;20066;-62
2023/03/23 13:47:23;;;;;;;7.47;3.80;;;;;;;-144.57;100.00;62443.72;4772586;30;20100;-62
2023/03/23 13:50:26;;;;;;;5.40;3.88;;;;;;;-144.57;100.00;62443.72;4769044;30;20076;-62
2023/03/23 13:52:55;;;;;;;5.70;3.75;;;;;;;-144.57;100.00;62443.72;4766641;30;20118;-62
2023/03/23 13:55:41;;;;;;;5.25;3.70;;;;;;;-144.57;100.00;62443.72;4781859;30;20430;-63
2023/03/23 13:58:08;;;;;;;5.07;4.28;;;;;;;-144.57;100.00;62443.72;4766529;30;20056;-63
2023/03/23 14:00:45;;;;;;;5.28;3.97;;;;;;;-144.57;100.00;62443.72;4752970;30;20686;-61
2023/03/23 14:03:15;;;;;;;5.32;4.03;;;;;;;-144.57;100.00;62443.72;4769544;30;20059;-65
2023/03/23 14:05:43;;;;;;;4.88;3.80;;;;;;;-144.57;100.00;62443.72;4769469;30;20540;-64
2023/03/23 14:08:09;;;;;;;4.80;3.95;;;;;;;-144.57;100.00;62443.72;4777332;30;20063;-63
2023/03/23 14:10:42;;;;;;;6.22;4.07;;;;;;;-144.57;100.00;62443.72;4792691;29;20077;-66
2023/03/23 14:13:25;;;;;;;6.10;4.07;;;;;;;-144.57;100.00;62443.72;4777743;30;20091;-65
2023/03/23 14:16:15;;;;;;;6.32;4.18;;;;;;;-144.57;100.00;62443.72;4775880;30;20058;-65
2023/03/23 14:18:42;;;;;;;7.67;4.30;;;;;;;-144.57;100.00;62443.72;4778052;29;20060;-66
2023/03/23 14:21:17;;;;;;;5.68;4.25;;;;;;;-144.57;100.00;62443.72;4778095;29;20304;-64
2023/03/23 14:23:43;;;;;;;6.93;4.20;;;;;;;-144.57;100.00;62443.72;4763466;30;20116;-64
2023/03/23 14:26:17;;;;;;;5.22;4.28;;;;;;;-144.57;100.00;62443.72;4794415;29;20138;-63
2023/03/23 14:28:45;;;;;;;7.10;4.25;;;;;;;-144.57;100.00;62443.72;4777903;29;20059;-64
2023/03/23 14:31:20;;;;;;;6.07;4.15;;;;;;;-144.57;100.00;62443.72;4778553;30;20078;-63
2023/03/23 14:33:47;;;;;;;5.68;3.88;;;;;;;-144.57;100.00;62443.72;4789260;29;20083;-65
2023/03/23 14:36:24;;;;;;;8.40;4.05;;;;;;;-144.57;100.00;62443.72;4777700;30;20457;-62
2023/03/23 14:39:26;;;;;;;5.22;4.15;;;;;;;-144.57;100.00;62443.72;4778081;29;20055;-62
2023/03/23 14:41:54;;;;;;;5.28;4.32;;;;;;;-144.57;100.00;62443.72;4774303;30;20059;-64
2023/03/23 14:44:27;;;;;;;7.43;4.45;;;;;;;-144.57;100.00;62443.72;4768313;30;20064;-61
2023/03/23 14:46:55;;;;;;;6.82;3.90;;;;;;;-144.57;100.00;62443.72;4770009;30;20514;-67
2023/03/23 14:49:30;;;;;;;9.40;5.18;;;;;;;-144.57;100.00;62443.72;4765658;30;20158;-66
2023/03/23 14:51:56;;;;;;;10.27;4.85;;;;;;;-144.57;100.00;62443.72;4737894;30;20335;-65
2023/03/23 14:54:28;;;;;;;6.10;4.80;;;;;;;-144.57;100.00;62443.72;4745208;30;20056;-62
2023/03/23 14:56:55;;;;;;;6.55;4.40;;;;;;;-144.57;100.00;62443.72;4770071;30;20143;-64
2023/03/23 14:59:24;;;;;;;6.20;4.28;;;;;;;-144.57;100.00;62443.72;4768612;30;20060;-64
2023/03/23 15:01:50;;;;;;;6.95;4.63;;;;;;;-144.57;100.00;62443.72;4768609;30;20141;-63
2023/03/23 15:04:20;;;;;;;8.30;4.80;;;;;;;-144.57;100.00;62443.72;4768303;30;20067;-63
2023/03/23 15:06:54;;;;;;;7.20;4.75;;;;;;;-144.57;100.00;62443.72;4751069;30;20477;-64
2023/03/23 15:09:25;;;;;;;6.75;4.53;;;;;;;-144.57;100.00;62443.72;4760397;29;20078;-64
2023/03/23 15:12:06;;;;;;;6.97;4.65;;;;;;;-144.57;100.00;62443.72;4769103;30;20120;-63
2023/03/23 15:14:57;;;;;;;6.88;4.63;;;;;;;-144.57;100.00;62443.72;4766013;30;20060;-64
2023/03/23 15:17:28;;;;;;;8.27;5.18;;;;;;;-144.57;100.00;62443.72;4751307;30;20418;-64
2023/03/23 15:19:56;;;;;;;7.18;4.95;;;;;;;-144.57;100.00;62443.72;4763465;30;20113;-63
2023/03/23 15:22:25;;;;;;;10.00;5.15;;;;;;;-144.57;100.00;62443.72;4753292;30;20067;-64
2023/03/23 15:25:07;;;;;;;9.30;6.17;;;;;;;-144.57;100.00;62443.72;4768641;30;20052;-62
2023/03/23 15:27:34;;;;;;;8.02;4.50;;;;;;;-144.57;100.00;62443.72;4783145;30;20062;-65
2023/03/23 15:30:26;;;;;;;6.20;4.55;;;;;;;-144.57;100.00;62443.72;4767681;30;20062;-62
2023/03/23 15:33:15;;;;;;;8.98;4.55;;;;;;;-144.57;100.00;62443.72;4764784;30;20064;-61
2023/03/23 15:35:50;;;;;;;8.45;4.20;;;;;;;-144.57;100.00;62443.72;4745867;30;20059;-65
2023/03/23 15:38:25;;;;;;;10.05;4.35;;;;;;;-144.57;100.00;62443.72;4734338;30;20473;-64
2023/03/23 15:40:57;;;;;;;8.65;4.78;;;;;;;-144.57;100.00;62443.72;4758574;30;20156;-64
2023/03/23 15:43:28;;;;;;;7.88;4.82;;;;;;;-144.57;100.00;62443.72;4751161;30;20161;-64
2023/03/23 15:46:16;;;;;;;9.93;4.60;;;;;;;-144.57;100.00;62443.72;4756090;30;20091;-64
2023/03/23 15:48:56;;;;;;;8.65;4.78;;;;;;;-144.57;100.00;62443.72;4781405;30;20059;-64
2023/03/23 15:51:27;;;;;;;7.65;4.50;;;;;;;-144.57;100.00;62443.72;4771521;30;20109;-67
2023/03/23 15:53:54;;;;;;;7.03;4.97;;;;;;;-144.57;100.00;62443.72;4771246;29;20153;-65
2023/03/23 15:56:20;;;;;;;8.10;4.88;;;;;;;-144.57;100.00;62443.72;4772385;29;20062;-66
2023/03/23 15:58:47;;;;;;;6.45;4.70;;;;;;;-144.57;100.00;62443.72;4759444;30;20767;-66
2023/03/23 16:01:21;;;;;;;8.90;4.80;;;;;;;-144.57;100.00;62443.72;4775537;30;20059;-67
2023/03/23 16:03:50;;;;;;;6.93;4.72;;;;;;;-144.57;100.00;62443.72;4777579;30;20051;-64
2023/03/23 16:06:20;;;;;;;7.55;4.75;;;;;;;-144.57;100.00;62443.72;4776593;30;20142;-65
2023/03/23 16:08:47;;;;;;;5.97;4.53;;;;;;;-144.57;100.00;62443.72;4758292;30;20082;-64
2023/03/23 16:11:15;;;;;;;8.95;4.68;;;;;;;-144.57;100.00;62443.72;4774082;30;20105;-63
2023/03/23 16:13:41;;;;;;;7.30;5.22;;;;;;;-144.57;100.00;62443.72;4760443;30;20075;-64
2023/03/23 16:16:17;;;;;;;8.48;4.65;;;;;;;-144.57;100.00;62443.72;4776863;30;20070;-65
2023/03/23 16:18:44;;;;;;;7.45;4.60;;;;;;;-144.57;100.00;62443.72;4774644;29;20086;-64
2023/03/23 16:21:13;;;;;;;;;;;;;;;-144.57;100.00;62443.72;4775577;29;20109;-64
2023/03/23 16:23:40;;;;;;;10.25;4.82;;;;;;;-144.57;100.00;62443.72;4776132;30;20473;-63
2023/03/23 16:26:06;;;;;;;8.52;4.93;;;;;;;-144.57;100.00;62443.72;4776984;30;20059;-64
2023/03/23 16:28:31;;;;;;;8.70;5.07;;;;;;;-144.57;100.00;62443.72;4774740;30;20051;-62
2023/03/23 16:30:57;;;;;;;6.53;5.10;;;;;;;-144.57;100.00;62443.72;4767003;30;20051;-62
2023/03/23 16:33:23;;;;;;;8.30;5.30;;;;;;;-144.57;100.00;62443.72;4772043;30;20078;-64
2023/03/23 16:35:49;;;;;;;9.60;5.13;;;;;;;-144.57;100.00;62443.72;4784402;29;20550;-62
2023/03/23 16:38:16;;;;;;;7.80;5.38;;;;;;;-144.57;100.00;62443.72;4772452;30;20541;-64
2023/03/23 16:40:44;;;;;;;7.75;5.25;;;;;;;-144.57;100.00;62443.72;4763027;30;20060;-63
2023/03/23 16:43:11;;;;;;;7.88;5.28;;;;;;;-144.57;100.00;62443.72;4762710;30;20120;-62
2023/03/23 16:45:38;;;;;;;9.18;5.32;;;;;;;-144.57;100.00;62443.72;4760697;30;20070;-64
2023/03/23 16:48:05;;;;;;;9.38;4.97;;;;;;;-144.57;100.00;62443.72;4763383;30;20056;-61
2023/03/23 16:50:31;;;;;;;10.85;5.22;;;;;;;-144.57;100.00;62443.72;4746715;30;20055;-63
2023/03/23 16:52:57;;;;;;;8.10;5.10;;;;;;;-144.57;100.00;62443.72;4761740;30;20058;-63
2023/03/23 16:55:25;;;;;;;9.70;5.30;;;;;;;-144.57;100.00;62443.72;4762579;30;20549;-65
2023/03/23 16:57:51;;;;;;;9.20;5.63;;;;;;;-144.57;100.00;62443.72;4776294;30;20087;-62
2023/03/23 17:00:19;;;;;;;6.65;4.82;;;;;;;-144.57;100.00;62443.72;4765835;29;20490;-63
2023/03/23 17:02:46;;;;;;;7.72;4.90;;;;;;;-144.57;100.00;62443.72;4769178;30;20043;-65
2023/03/23 17:05:12;;;;;;;8.45;5.10;;;;;;;-144.57;100.00;62443.72;4785863;29;20063;-63
2023/03/23 17:07:40;;;;;;;7.68;5.05;;;;;;;-144.57;100.00;62443.72;4774638;30;20040;-63
2023/03/23 17:10:08;;;;;;;7.38;5.22;;;;;;;-144.57;100.00;62443.72;4763446;30;20051;-63
2023/03/23 17:12:34;;;;;;;8.40;5.30;;;;;;;-144.57;100.00;62443.72;4764606;29;20066;-62
2023/03/23 17:15:00;;;;;;;9.55;4.88;;;;;;;-144.57;100.00;62443.72;4792020;29;20056;-63
2023/03/23 17:17:28;;;;;;;9.05;4.95;;;;;;;-144.57;100.00;62443.72;4773464;30;20067;-62
2023/03/23 17:19:53;;;;;;;8.63;5.82;;;;;;;-144.57;100.00;62443.72;4764248;30;20065;-63
2023/03/23 17:22:19;;;;;;;10.48;5.72;;;;;;;-144.57;100.00;62443.72;4746985;30;20577;-63
2023/03/23 17:24:46;;;;;;;10.48;5.60;;;;;;;-144.57;100.00;62443.72;4758030;30;20108;-65
2023/03/23 17:27:16;;;;;;;10.40;5.18;;;;;;;-144.57;100.00;62443.72;4778746;30;20573;-63
2023/03/23 17:29:43;;;;;;;10.70;5.47;;;;;;;-144.57;100.00;62443.72;4776218;30;20063;-61
2023/03/23 17:32:09;;;;;;;8.10;4.95;;;;;;;-144.57;100.00;62443.72;4757512;30;20055;-63
2023/03/23 17:34:35;;;;;;;8.05;5.20;;;;;;;-144.57;100.00;62443.72;4785826;30;20059;-62
2023/03/23 17:37:02;;;;;;;10.70;5.30;;;;;;;-144.57;100.00;62443.72;4769219;30;20051;-61
2023/03/23 17:39:34;;;;;;;8.13;5.53;;;;;;;-144.57;100.00;62443.72;4755636;30;20422;-63
2023/03/23 17:42:00;;;;;;;11.07;6.10;;;;;;;-144.57;100.00;62443.72;4784281;30;20055;-62
2023/03/23 17:44:26;;;;;;;10.40;5.65;;;;;;;-144.57;100.00;62443.72;4769544;30;20059;-61
2023/03/23 17:46:56;;;;;;;10.75;4.85;;;;;;;-144.57;100.00;62443.72;4768128;29;20052;-61
2023/03/23 17:49:23;;;;;;;7.72;5.00;;;;;;;-144.57;100.00;62443.72;4753970;30;20083;-62
2023/03/23 17:51:49;;;;;;;10.27;5.40;;;;;;;-144.57;100.00;62443.72;4771922;30;20067;-62
2023/03/23 17:54:15;;;;;;;8.07;5.32;;;;;;;-144.57;100.00;62443.72;4787389;30;20063;-63
2023/03/23 17:56:41;;;;;;;10.63;5.50;;;;;;;-144.57;100.00;62443.72;4787002;30;20194;-66
2023/03/23 17:59:06;;;;;;;9.85;5.78;;;;;;;-144.57;100.00;62443.72;4772160;30;20052;-63
2023/03/23 18:01:33;;;;;;;13.63;6.57;;;;;;;-144.57;100.00;62443.72;4787552;30;20067;-63
2023/03/23 18:04:00;;;;;;;10.00;5.40;;;;;;;-144.57;100.00;62443.72;4772231;30;20226;-63
2023/03/23 18:06:26;;;;;;;12.35;6.10;;;;;;;-144.57;100.00;62443.72;4789760;29;20271;-64
2023/03/23 18:08:52;;;;;;;7.53;5.57;;;;;;;-144.57;100.00;62443.72;4780506;29;20055;-62
2023/03/23 18:11:18;;;;;;;13.00;5.75;;;;;;;-144.57;100.00;62443.72;4798423;29;20065;-62
2023/03/23 18:13:45;;;;;;;10.70;5.45;;;;;;;-144.57;100.00;62443.72;4770985;30;20423;-63
2023/03/23 18:16:11;;;;;;;13.98;5.85;;;;;;;-144.57;100.00;62443.72;4757039;30;20101;-63
2023/03/23 18:18:38;;;;;;;10.20;5.68;;;;;;;-144.57;100.00;62443.72;4771133;30;20570;-64
2023/03/23 18:21:07;;;;;;;11.50;6.05;;;;;;;-144.57;100.00;62443.72;4786443;30;20055;-62
2023/03/23 18:23:34;;;;;;;8.80;5.70;;;;;;;-144.57;100.00;62443.72;4772012;30;20112;-63
2023/03/23 18:26:07;;;;;;;8.98;6.10;;;;;;;-144.57;100.00;62443.72;4756981;30;20474;-62
2023/03/23 18:28:33;;;;;;;10.18;6.35;;;;;;;-144.57;100.00;62443.72;4787565;29;20142;-61
2023/03/23 18:31:14;;;;;;;12.55;6.32;;;;;;;-144.57;100.00;62443.72;4776665;29;20066;-63
2023/03/23 18:33:45;;;;;;;10.27;6.10;;;;;;;-144.57;100.00;62443.72;4773301;30;20097;-63
2023/03/23 18:36:36;;;;;;;8.25;5.82;;;;;;;-144.57;100.00;62443.72;4771863;30;20071;-62
2023/03/23 18:39:05;;;;;;;9.55;5.95;;;;;;;-144.57;100.00;62443.72;4772674;30;20152;-63
2023/03/23 18:41:32;;;;;;;7.57;6.07;;;;;;;-144.57;100.00;62443.72;4753620;30;20062;-63
2023/03/23 18:43:58;;;;;;;11.13;6.43;;;;;;;-144.57;100.00;62443.72;4756339;30;20055;-62
2023/03/23 18:46:27;;;;;;;15.90;7.13;;;;;;;-144.57;100.00;62443.72;4752949;30;20102;-62
2023/03/23 18:48:54;;;;;;;9.07;5.65;;;;;;;-144.57;100.00;62443.72;4770210;30;20062;-62
2023/03/23 18:51:22;;;;;;;12.65;6.88;;;;;;;-144.57;100.00;62443.72;4756585;30;20193;-62
2023/03/23 18:53:56;;;;;;;13.32;6.75;;;;;;;-144.57;100.00;62443.72;4771573;30;20055;-61
2023/03/23 18:56:22;;;;;;;11.82;7.25;;;;;;;-144.57;100.00;62443.72;4771452;30;20066;-61
2023/03/23 18:58:52;;;;;;;16.42;8.13;;;;;;;-144.57;100.00;62443.72;4756256;30;20114;-63
2023/03/23 19:01:19;;;;;;;14.13;7.95;;;;;;;-144.57;100.00;62443.72;4741768;30;20066;-62
2023/03/23 19:03:45;;;;;;;15.10;7.30;;;;;;;-144.57;100.00;62443.72;4785807;30;20063;-65
2023/03/23 19:06:23;;;;;;;15.93;8.35;;;;;;;-144.57;100.00;62443.72;4771390;30;20540;-66
2023/03/23 19:08:53;;;;;;;12.77;7.50;;;;;;;-144.57;100.00;62443.72;4756289;30;20549;-63
2023/03/23 19:11:24;;;;;;;15.23;7.40;;;;;;;-144.57;100.00;62443.72;4755745;30;20065;-61
2023/03/23 19:13:53;;;;;;;15.40;7.93;;;;;;;-144.57;100.00;62443.72;4755941;30;20112;-63
2023/03/23 19:16:20;;;;;;;12.23;7.82;;;;;;;-144.57;100.00;62443.72;4746074;30;20151;-65
2023/03/23 19:18:47;;;;;;;13.38;8.50;;;;;;;-144.57;100.00;62443.72;4741267;30;20063;-64
2023/03/23 19:21:15;;;;;;;12.40;7.70;;;;;;;-144.57;100.00;62443.72;4770196;30;20078;-66
2023/03/23 19:23:44;;;;;;;17.35;8.30;;;;;;;-144.57;100.00;62443.72;4752996;30;20051;-62
2023/03/23 19:26:21;;;;;;;13.43;7.93;;;;;;;-144.57;100.00;62443.72;4723990;30;20594;-62
2023/03/23 19:28:47;;;;;;;14.27;8.40;;;;;;;-144.57;100.00;62443.72;4744315;29;20434;-64
2023/03/23 19:31:14;;;;;;;12.18;7.78;;;;;;;-144.57;100.00;62443.72;4785089;30;20070;-63
2023/03/23 19:33:40;;;;;;;19.60;7.97;;;;;;;-144.57;100.00;62443.72;4770031;30;20059;-65
2023/03/23 19:36:06;;;;;;;12.80;8.30;;;;;;;-144.57;100.00;62443.72;4770766;30;20055;-63
2023/03/23 19:38:33;;;;;;;14.95;8.60;;;;;;;-144.57;100.00;62443.72;4785871;30;20123;-63
2023/03/23 19:41:02;;;;;;;12.70;7.93;;;;;;;-144.57;100.00;62443.72;4770277;30;20059;-63
2023/03/23 19:43:30;;;;;;;12.15;7.85;;;;;;;-144.57;100.00;62443.72;4756025;30;20140;-63
2023/03/23 19:46:00;;;;;;;15.32;7.80;;;;;;;-144.57;100.00;62443.72;4787007;30;20113;-64
2023/03/23 19:48:26;;;;;;;16.05;8.25;;;;;;;-144.57;100.00;62443.72;4770410;30;20118;-62
2023/03/23 19:50:56;;;;;;;14.57;8.38;;;;;;;-144.57;100.00;62443.72;4767209;30;20066;-63
2023/03/23 19:53:23;;;;;;;16.23;8.90;;;;;;;-144.57;100.00;62443.72;4767721;30;20097;-62
2023/03/23 19:55:50;;;;;;;12.93;8.25;;;;;;;-144.57;100.00;62443.72;4767407;30;20055;-63
2023/03/23 19:58:17;;;;;;;15.70;7.55;;;;;;;-144.57;100.00;62443.72;4782196;30;20102;-62
2023/03/23 20:00:43;;;;;;;18.65;9.65;;;;;;;-144.57;100.00;62443.72;4767535;30;20059;-63
2023/03/23 20:03:09;;;;;;;16.02;8.88;;;;;;;-144.57;100.00;62443.72;4768795;29;20072;-61
2023/03/23 20:05:36;;;;;;;13.23;8.45;;;;;;;-144.57;100.00;62443.72;4766879;30;20434;-64
2023/03/23 20:08:02;;;;;;;17.40;9.10;;;;;;;-144.57;100.00;62443.72;4782587;29;20067;-62
2023/03/23 20:10:28;;;;;;;11.88;8.07;;;;;;;-144.57;100.00;62443.72;4782121;29;20058;-62
2023/03/23 20:12:54;;;;;;;14.93;8.48;;;;;;;-144.57;100.00;62443.72;4752648;30;20484;-63
2023/03/23 20:15:20;;;;;;;17.80;8.70;;;;;;;-144.57;100.00;62443.72;4748992;30;20090;-62
2023/03/23 20:17:47;;;;;;;15.52;8.27;;;;;;;-144.57;100.00;62443.72;4749413;30;20052;-62
2023/03/23 20:20:14;;;;;;;15.18;8.60;;;;;;;-144.57;100.00;62443.72;4767082;30;20063;-62
2023/03/23 20:22:41;;;;;;;12.85;8.35;;;;;;;-144.57;100.00;62443.72;4768339;30;20055;-62
2023/03/23 20:25:07;;;;;;;13.13;9.00;;;;;;;-144.57;100.00;62443.72;4768340;30;20082;-63
2023/03/23 20:27:34;;;;;;;12.93;8.55;;;;;;;-144.57;100.00;62443.72;4768430;30;20067;-62
2023/03/23 20:30:00;;;;;;;12.55;8.57;;;;;;;-144.57;100.00;62443.72;4766989;30;20059;-62
2023/03/23 20:32:29;;;;;;;16.10;8.30;;;;;;;-144.57;100.00;62443.72;4768426;30;20120;-62
2023/03/23 20:34:55;;;;;;;15.40;8.48;;;;;;;-144.57;100.00;62443.72;4768515;30;20059;-62
2023/03/23 20:37:23;;;;;;;16.30;9.20;;;;;;;-144.57;100.00;62443.72;4766319;30;20590;-61
2023/03/23 20:39:50;;;;;;;13.40;8.07;;;;;;;-144.57;100.00;62443.72;4772026;30;20103;-61
2023/03/23 20:42:16;;;;;;;12.38;8.05;;;;;;;-144.57;100.00;62443.72;4765232;30;20518;-61
2023/03/23 20:44:41;;;;;;;13.55;8.98;;;;;;;-144.57;100.00;62443.72;4782044;30;20076;-63
2023/03/23 20:47:08;;;;;;;13.40;8.20;;;;;;;-144.57;100.00;62443.72;4769038;30;20059;-62
2023/03/23 20:49:36;;;;;;;15.57;8.73;;;;;;;-144.57;100.00;62443.72;4763999;30;20063;-63
2023/03/23 20:52:03;;;;;;;13.23;8.25;;;;;;;-144.57;100.00;62443.72;4767143;30;20064;-62
2023/03/23 20:54:30;;;;;;;12.15;8.38;;;;;;;-144.57;100.00;62443.72;4747941;30;20052;-61
2023/03/23 20:56:57;;;;;;;12.63;8.40;;;;;;;-144.57;100.00;62443.72;4737279;30;20079;-63
2023/03/23 20:59:24;;;;;;;12.27;8.38;;;;;;;-144.57;100.00;62443.72;4774906;30;20055;-62
2023/03/23 21:01:50;;;;;;;12.82;8.13;;;;;;;-144.57;100.00;62443.72;4751815;30;20688;-62
2023/03/23 21:04:21;;;;;;;14.02;7.88;;;;;;;-144.57;100.00;62443.72;4767076;30;20147;-62
2023/03/23 21:06:48;;;;;;;13.48;8.30;;;;;;;-144.57;100.00;62443.72;4766717;30;20056;-62
2023/03/23 21:09:15;;;;;;;13.70;8.50;;;;;;;-144.57;100.00;62443.72;4767057;30;20074;-62
2023/03/23 21:11:41;;;;;;;12.38;8.35;;;;;;;-144.57;100.00;62443.72;4776626;30;20052;-62
2023/03/23 21:14:08;;;;;;;11.38;8.20;;;;;;;-144.57;100.00;62443.72;4763654;30;20056;-62
2023/03/23 21:16:34;;;;;;;12.93;7.88;;;;;;;-144.57;100.00;62443.72;4754937;30;20135;-63
2023/03/23 21:19:02;;;;;;;11.95;8.43;;;;;;;-144.57;100.00;62443.72;4781522;30;20060;-62
2023/03/23 21:21:28;;;;;;;14.40;8.70;;;;;;;-144.57;100.00;62443.72;4781342;30;20066;-63
2023/03/23 21:23:56;;;;;;;12.13;8.20;;;;;;;-144.57;100.00;62443.72;4781654;30;20137;-62
2023/03/23 21:26:26;;;;;;;14.13;8.45;;;;;;;-144.57;100.00;62443.72;4766165;30;20052;-63
2023/03/23 21:28:52;;;;;;;12.30;8.20;;;;;;;-144.57;100.00;62443.72;4768077;30;20079;-62
2023/03/23 21:31:22;;;;;;;13.50;8.30;;;;;;;-144.57;100.00;62443.72;4767883;30;20277;-61
2023/03/23 21:33:48;;;;;;;12.48;8.18;;;;;;;-144.57;100.00;62443.72;4780853;30;20399;-62
2023/03/23 21:36:14;;;;;;;12.00;7.85;;;;;;;-144.57;100.00;62443.72;4766388;30;20059;-63
2023/03/23 21:38:40;;;;;;;15.18;8.50;;;;;;;-144.57;100.00;62443.72;4767576;30;20115;-63
2023/03/23 21:41:10;;;;;;;12.77;8.00;;;;;;;-144.57;100.00;62443.72;4766413;30;20060;-62
2023/03/23 21:43:39;;;;;;;13.90;8.63;;;;;;;-144.57;100.00;62443.72;4751517;30;20087;-61
2023/03/23 21:46:07;;;;;;;14.10;8.65;;;;;;;-144.57;100.00;62443.72;4766410;30;20546;-62
2023/03/23 21:48:34;;;;;;;14.02;8.38;;;;;;;-144.57;100.00;62443.72;4767557;30;20060;-62
2023/03/23 21:51:21;;;;;;;14.57;8.43;;;;;;;-144.57;100.00;62443.72;4766520;30;20068;-62
2023/03/23 21:53:47;;;;;;;13.25;8.40;;;;;;;-144.57;100.00;62443.72;4769112;30;20063;-61
2023/03/23 21:56:14;;;;;;;11.88;8.10;;;;;;;-144.57;100.00;62443.72;4769517;30;20055;-63
2023/03/23 21:58:41;;;;;;;12.07;8.00;;;;;;;-144.57;100.00;62443.72;4769298;30;20505;-63
2023/03/23 22:01:08;;;;;;;14.13;8.25;;;;;;;-144.57;100.00;62443.72;4769410;30;20538;-62
2023/03/23 22:03:34;;;;;;;12.45;8.50;;;;;;;-144.57;100.00;62443.72;4784203;30;20093;-61
2023/03/23 22:06:13;;;;;;;12.30;8.13;;;;;;;-144.57;100.00;62443.72;4770768;30;20083;-62
2023/03/23 22:08:41;;;;;;;13.43;8.10;;;;;;;-144.57;100.00;62443.72;4783922;30;20087;-63
2023/03/23 22:11:13;;;;;;;13.50;8.32;;;;;;;-144.57;100.00;62443.72;4769525;30;20056;-63
2023/03/23 22:13:40;;;;;;;12.07;8.43;;;;;;;-144.57;100.00;62443.72;4769067;30;20543;-63
2023/03/23 22:16:16;;;;;;;12.18;8.98;;;;;;;-144.57;100.00;62443.72;4783969;30;20530;-61
2023/03/23 22:18:43;;;;;;;14.05;8.25;;;;;;;-144.57;100.00;62443.72;4783803;30;20060;-62
2023/03/23 22:21:10;;;;;;;13.02;8.35;;;;;;;-144.57;100.00;62443.72;4770316;30;20059;-62
2023/03/23 22:23:37;;;;;;;14.75;8.90;;;;;;;-144.57;100.00;62443.72;4768930;30;20464;-61
2023/03/23 22:26:04;;;;;;;15.57;8.75;;;;;;;-144.57;100.00;62443.72;4768847;30;20101;-62
2023/03/23 22:28:30;;;;;;;13.93;8.88;;;;;;;-144.57;100.00;62443.72;4770126;30;20526;-62
2023/03/23 22:31:02;;;;;;;14.07;8.80;;;;;;;-144.57;100.00;62443.72;4768265;30;20091;-62
2023/03/23 22:33:29;;;;;;;14.13;8.40;;;;;;;-144.57;100.00;62443.72;4754347;30;20056;-62
2023/03/23 22:35:55;;;;;;;14.45;9.00;;;;;;;-144.57;100.00;62443.72;4768709;30;20085;-63
2023/03/23 22:38:21;;;;;;;16.30;9.15;;;;;;;-144.57;100.00;62443.72;4783342;30;20055;-62
2023/03/23 22:40:57;;;;;;;15.60;9.05;;;;;;;-144.57;100.00;62443.72;4770091;30;20063;-62
2023/03/23 22:43:23;;;;;;;18.13;8.80;;;;;;;-144.57;100.00;62443.72;4768883;30;20055;-60
2023/03/23 22:45:50;;;;;;;13.02;8.70;;;;;;;-144.57;100.00;62443.72;4769175;30;20433;-63
2023/03/23 22:48:18;;;;;;;14.55;9.07;;;;;;;-144.57;100.00;62443.72;4768619;30;20155;-62
2023/03/23 22:50:45;;;;;;;17.13;9.95;;;;;;;-144.57;100.00;62443.72;4768336;30;20550;-61
2023/03/23 22:53:12;;;;;;;16.48;9.50;;;;;;;-144.57;100.00;62443.72;4769931;30;20064;-63
2023/03/23 22:55:45;;;;;;;14.65;9.75;;;;;;;-144.57;100.00;62443.72;4750790;30;20084;-62
2023/03/23 22:58:11;;;;;;;16.55;9.23;;;;;;;-144.57;100.00;62443.72;4765492;30;20060;-62
2023/03/23 23:00:38;;;;;;;16.08;9.93;;;;;;;-144.57;100.00;62443.72;4766411;30;20051;-62
2023/03/23 23:03:05;;;;;;;18.60;10.27;;;;;;;-144.57;100.00;62443.72;4767375;30;20099;-62
2023/03/23 23:05:31;;;;;;;16.70;9.98;;;;;;;-144.57;100.00;62443.72;4766889;30;20059;-62